Butler, Oklahoma
Current Conditions -  °F | °C
As of 6:35 PM on Saturday 25 Oct 2014 (Local Time) from KCLK Reporting Station
Clear Clear  
Wind Chill: 81°   Ceiling: Unl
Heat Index: 81°   Visibility: 10mi
Dew Point: 48°   Wind: 7mph
Humidity: 32%   Direction: 160°SSE
Pressure: 30.02"   Gusts: NA
Location:  35.64°N, 99.19°W
Report Text: KCLK 252335Z AUTO 16006KT 10SM CLR 27/09 A3002 RMK AO2
Loading
Personal Weather Stations






























Interactive Weather Map New forecast layout! Learn more

10-Day Weather Forecast

Advertisements
Track Severe Weather on mobile